createdAt,value
2018-07-19T00:00:58.905Z,21.38
2018-07-19T00:03:27.697Z,21.41
2018-07-19T00:05:56.452Z,21.39
2018-07-19T00:10:52.848Z,21.31
2018-07-19T00:13:22.071Z,21.32
2018-07-19T00:15:50.801Z,21.28
2018-07-19T00:18:20.696Z,21.30
2018-07-19T00:20:49.434Z,21.25
2018-07-19T00:23:18.225Z,21.22
2018-07-19T00:28:14.596Z,21.35
2018-07-19T00:30:43.338Z,21.43
2018-07-19T00:33:12.077Z,21.46
2018-07-19T00:35:40.900Z,21.51
2018-07-19T00:38:09.688Z,21.51
2018-07-19T00:40:38.409Z,21.55
2018-07-19T00:43:07.261Z,21.61
2018-07-19T00:45:35.991Z,21.63
2018-07-19T00:48:04.853Z,21.75
2018-07-19T00:50:33.651Z,21.77
2018-07-19T00:53:02.738Z,21.76
2018-07-19T00:55:31.461Z,21.70
2018-07-19T00:58:00.230Z,21.63
2018-07-19T01:00:29.019Z,21.76
2018-07-19T01:02:57.771Z,21.85
2018-07-19T01:05:26.498Z,21.85
2018-07-19T01:07:55.230Z,21.81
2018-07-19T01:10:24.001Z,21.76
2018-07-19T01:12:52.797Z,21.68
2018-07-19T01:15:21.544Z,21.63
2018-07-19T01:17:50.314Z,21.55
2018-07-19T01:20:19.105Z,21.51
2018-07-19T01:22:47.918Z,21.45
2018-07-19T01:25:16.985Z,21.46
2018-07-19T01:27:45.713Z,21.45
2018-07-19T01:30:14.474Z,21.41
2018-07-19T01:32:43.214Z,21.36
2018-07-19T01:35:11.958Z,21.28
2018-07-19T01:37:40.745Z,21.30
2018-07-19T01:40:09.464Z,21.26
2018-07-19T01:42:40.730Z,21.24
2018-07-19T01:45:10.203Z,21.21
2018-07-19T01:47:39.043Z,21.21
2018-07-19T01:50:08.958Z,21.26
2018-07-19T01:52:37.671Z,21.32
2018-07-19T01:55:06.713Z,21.30
2018-07-19T01:57:35.488Z,21.30
2018-07-19T02:00:04.973Z,21.26
2018-07-19T02:02:33.676Z,21.22
2018-07-19T02:05:02.435Z,21.29
2018-07-19T02:07:31.180Z,21.31
2018-07-19T02:09:59.896Z,21.37
2018-07-19T02:12:28.766Z,21.49
2018-07-19T02:14:57.492Z,21.57
2018-07-19T02:17:26.217Z,21.66
2018-07-19T02:19:54.954Z,21.71
2018-07-19T02:22:23.657Z,21.71
2018-07-19T02:24:52.374Z,21.70
2018-07-19T02:27:21.156Z,21.64
2018-07-19T02:29:49.880Z,21.62
2018-07-19T02:32:18.649Z,21.56
2018-07-19T02:34:47.387Z,21.50
2018-07-19T02:37:16.122Z,21.38
2018-07-19T02:39:44.981Z,21.30
2018-07-19T02:42:13.747Z,21.31
2018-07-19T02:44:42.552Z,21.33
2018-07-19T02:47:11.269Z,21.33
2018-07-19T02:49:40.005Z,21.41
2018-07-19T02:52:08.772Z,21.45
2018-07-19T02:54:37.513Z,21.47
2018-07-19T02:57:06.365Z,21.54
2018-07-19T02:59:35.126Z,21.58
2018-07-19T03:02:03.868Z,21.57
2018-07-19T03:04:32.592Z,21.57
2018-07-19T03:07:01.567Z,21.62
2018-07-19T03:09:30.513Z,21.67
2018-07-19T03:11:59.385Z,21.76
2018-07-19T03:14:28.290Z,21.80
2018-07-19T03:16:57.049Z,21.69
2018-07-19T03:19:25.762Z,21.76
2018-07-19T03:21:54.536Z,21.80
2018-07-19T03:24:23.270Z,21.83
2018-07-19T03:26:52.005Z,21.76
2018-07-19T03:29:20.756Z,21.83
2018-07-19T03:31:49.474Z,21.91
2018-07-19T03:34:19.170Z,21.92
2018-07-19T03:36:48.278Z,21.82
2018-07-19T03:39:17.118Z,21.85
2018-07-19T03:41:45.862Z,21.88
2018-07-19T03:44:14.610Z,22.00
2018-07-19T03:46:43.353Z,22.09
2018-07-19T03:49:12.267Z,22.19
2018-07-19T03:51:41.037Z,22.26
2018-07-19T03:54:09.804Z,22.28
2018-07-19T03:56:38.526Z,22.33
2018-07-19T03:59:07.268Z,22.39
2018-07-19T04:01:36.018Z,22.42
2018-07-19T04:04:04.754Z,22.51
2018-07-19T04:06:33.506Z,22.57
2018-07-19T04:09:02.259Z,22.56
2018-07-19T04:11:31.034Z,22.52
2018-07-19T04:13:59.780Z,22.48
2018-07-19T04:16:28.521Z,22.62
2018-07-19T04:18:57.437Z,22.75
2018-07-19T04:21:26.182Z,22.73
2018-07-19T04:23:54.909Z,22.73
2018-07-19T04:26:23.626Z,22.88
2018-07-19T04:28:52.299Z,23.08
2018-07-19T04:31:21.030Z,23.20
2018-07-19T04:33:49.724Z,23.41
2018-07-19T04:36:18.465Z,23.44
2018-07-19T04:38:47.165Z,23.59
2018-07-19T04:41:16.052Z,23.78
2018-07-19T04:43:44.813Z,23.84
2018-07-19T04:46:13.509Z,23.88
2018-07-19T04:48:42.293Z,23.64
2018-07-19T04:51:11.147Z,23.60
2018-07-19T04:53:39.856Z,23.65
2018-07-19T04:56:08.549Z,23.54
2018-07-19T04:58:37.380Z,23.54
2018-07-19T05:01:06.913Z,23.60
2018-07-19T05:03:35.638Z,23.59
2018-07-19T05:06:04.376Z,23.65
2018-07-19T05:08:33.114Z,23.58
2018-07-19T05:11:01.894Z,23.57
2018-07-19T05:13:30.726Z,23.57
2018-07-19T05:15:59.430Z,23.59
2018-07-19T05:18:28.170Z,23.81
2018-07-19T05:20:56.873Z,23.91
2018-07-19T05:23:25.628Z,24.11
2018-07-19T05:25:54.401Z,24.02
2018-07-19T05:28:23.160Z,24.35
2018-07-19T05:30:51.885Z,24.40
2018-07-19T05:33:20.612Z,24.18
2018-07-19T05:35:49.402Z,24.29
2018-07-19T05:38:18.199Z,24.39
2018-07-19T05:40:46.978Z,24.35
2018-07-19T05:43:15.767Z,24.23
2018-07-19T05:45:44.550Z,24.22
2018-07-19T05:48:13.249Z,23.90
2018-07-19T05:50:41.964Z,23.91
2018-07-19T05:53:10.644Z,23.97
2018-07-19T05:55:39.356Z,23.92
2018-07-19T05:58:08.114Z,24.20
2018-07-19T06:00:36.931Z,24.33
2018-07-19T06:03:05.870Z,24.41
2018-07-19T06:05:34.650Z,24.58
2018-07-19T06:08:03.353Z,24.75
2018-07-19T06:10:32.096Z,25.11
2018-07-19T06:13:00.861Z,25.24
2018-07-19T06:15:29.597Z,25.35
2018-07-19T06:17:58.314Z,25.45
2018-07-19T06:20:27.015Z,25.94
2018-07-19T06:22:55.745Z,26.34
2018-07-19T06:25:24.497Z,26.96
2018-07-19T06:27:53.426Z,28.78
2018-07-19T06:30:22.129Z,29.90
2018-07-19T06:32:50.862Z,31.59
2018-07-19T06:35:19.601Z,31.88
2018-07-19T06:37:48.333Z,31.61
2018-07-19T06:40:17.320Z,31.00
2018-07-19T06:42:46.051Z,32.32
2018-07-19T06:45:14.767Z,31.60
2018-07-19T06:47:43.685Z,31.36
2018-07-19T06:50:12.405Z,32.37
2018-07-19T06:52:41.213Z,32.95
2018-07-19T06:55:09.943Z,33.59
2018-07-19T06:57:38.645Z,34.50
2018-07-19T07:00:08.549Z,34.75
2018-07-19T07:02:37.357Z,34.62
2018-07-19T07:05:06.240Z,35.29
2018-07-19T07:07:34.993Z,35.63
2018-07-19T07:10:03.733Z,36.47
2018-07-19T07:12:32.521Z,36.10
2018-07-19T07:15:01.402Z,36.47
2018-07-19T07:17:30.105Z,36.21
2018-07-19T07:19:58.833Z,36.60
2018-07-19T07:22:27.539Z,37.06
2018-07-19T07:24:56.278Z,36.78
2018-07-19T07:27:24.991Z,37.38
2018-07-19T07:29:53.730Z,35.90
2018-07-19T07:32:22.469Z,35.69
2018-07-19T07:34:51.188Z,34.07
2018-07-19T07:37:19.929Z,32.94
2018-07-19T07:39:48.682Z,32.63
2018-07-19T07:42:17.481Z,31.39
2018-07-19T07:44:46.186Z,31.70
2018-07-19T07:47:14.910Z,31.88
2018-07-19T07:49:43.645Z,33.53
2018-07-19T07:52:12.378Z,34.91
2018-07-19T07:54:41.126Z,33.49
2018-07-19T07:57:10.318Z,32.66
2018-07-19T07:59:39.194Z,32.00
2018-07-19T08:02:07.974Z,30.76
2018-07-19T08:04:36.706Z,29.64
2018-07-19T08:07:05.442Z,30.10
2018-07-19T08:09:34.187Z,29.55
2018-07-19T08:12:02.911Z,29.75
2018-07-19T08:14:31.713Z,29.78
2018-07-19T08:17:00.705Z,30.18
2018-07-19T08:19:29.474Z,29.97
2018-07-19T08:21:58.203Z,29.73
2018-07-19T08:24:26.947Z,29.44
2018-07-19T08:26:55.745Z,29.79
2018-07-19T08:29:24.646Z,29.55
2018-07-19T08:31:53.450Z,29.05
2018-07-19T08:34:22.201Z,29.07
2018-07-19T08:36:50.924Z,29.01
2018-07-19T08:39:19.672Z,29.25
2018-07-19T08:41:48.411Z,29.70
2018-07-19T08:44:17.440Z,29.67
2018-07-19T08:46:46.161Z,29.65
2018-07-19T08:49:14.896Z,29.80
2018-07-19T08:51:43.686Z,29.21
2018-07-19T08:54:12.364Z,29.41
2018-07-19T08:56:41.139Z,29.40
2018-07-19T08:59:10.240Z,29.38
2018-07-19T09:01:39.060Z,29.74
2018-07-19T09:04:07.822Z,29.88
2018-07-19T09:06:36.581Z,29.94
2018-07-19T09:09:07.579Z,30.08
2018-07-19T09:11:36.312Z,30.47
2018-07-19T09:14:05.425Z,30.24
2018-07-19T09:16:34.139Z,31.03
2018-07-19T09:19:02.859Z,31.08
2018-07-19T09:21:31.748Z,31.30
2018-07-19T09:24:00.533Z,32.58
2018-07-19T09:26:29.455Z,34.09
2018-07-19T09:28:58.230Z,33.63
2018-07-19T09:31:26.973Z,33.99
2018-07-19T09:33:55.938Z,33.56
2018-07-19T09:36:24.671Z,33.93
2018-07-19T09:38:53.411Z,32.68
2018-07-19T09:41:22.125Z,32.74
2018-07-19T09:43:51.063Z,31.67
2018-07-19T09:46:20.198Z,30.84
2018-07-19T09:48:48.922Z,30.44
2018-07-19T09:51:17.665Z,29.97
2018-07-19T09:53:47.411Z,29.95
2018-07-19T09:56:16.166Z,30.63
2018-07-19T09:58:44.876Z,30.45
2018-07-19T10:01:18.685Z,30.79
2018-07-19T10:03:48.489Z,31.10
2018-07-19T10:06:17.427Z,31.39
2018-07-19T10:08:46.148Z,31.92
2018-07-19T10:11:15.101Z,32.15
2018-07-19T10:13:43.868Z,31.67
2018-07-19T10:16:12.586Z,31.95
2018-07-19T10:18:41.470Z,33.05
2018-07-19T10:21:10.180Z,34.75
2018-07-19T10:23:38.972Z,34.70
2018-07-19T10:26:07.673Z,34.45
2018-07-19T10:28:36.457Z,34.48
2018-07-19T10:31:05.156Z,34.23
2018-07-19T10:33:33.942Z,33.39
2018-07-19T10:36:02.714Z,32.95
2018-07-19T10:38:31.459Z,32.18
2018-07-19T10:41:00.238Z,31.69
2018-07-19T10:43:28.983Z,32.47
2018-07-19T10:45:57.724Z,32.41
2018-07-19T10:48:26.458Z,32.51
2018-07-19T10:50:55.178Z,32.51
2018-07-19T10:53:24.146Z,32.17
2018-07-19T10:55:52.862Z,32.64
2018-07-19T10:58:21.569Z,32.51
2018-07-19T11:00:50.311Z,32.21
2018-07-19T11:03:19.022Z,32.17
2018-07-19T11:05:47.762Z,32.75
2018-07-19T11:08:16.486Z,32.73
2018-07-19T11:10:45.214Z,33.07
2018-07-19T11:13:13.933Z,32.79
2018-07-19T11:15:42.664Z,32.92
2018-07-19T11:18:11.506Z,33.52
2018-07-19T11:20:40.290Z,33.46
2018-07-19T11:23:09.430Z,32.81
2018-07-19T11:25:38.406Z,32.61
2018-07-19T11:28:07.121Z,32.31
2018-07-19T11:30:35.902Z,32.53
2018-07-19T11:33:04.789Z,32.46
2018-07-19T11:35:33.504Z,32.71
2018-07-19T11:38:02.201Z,33.94
2018-07-19T11:40:30.929Z,34.11
2018-07-19T11:42:59.673Z,33.77
2018-07-19T11:45:28.412Z,32.23
2018-07-19T11:47:57.188Z,32.03
2018-07-19T11:50:25.929Z,32.28
2018-07-19T11:52:54.680Z,32.34
2018-07-19T11:55:23.524Z,31.87
2018-07-19T11:57:52.271Z,31.90
2018-07-19T12:00:21.032Z,31.99
2018-07-19T12:02:49.766Z,32.23
2018-07-19T12:05:18.525Z,31.92
2018-07-19T12:07:47.353Z,32.53
2018-07-19T12:10:16.152Z,32.46
2018-07-19T12:12:44.868Z,31.74
2018-07-19T12:15:13.723Z,31.76
2018-07-19T12:17:42.540Z,31.94
2018-07-19T12:20:11.308Z,31.11
2018-07-19T12:22:40.044Z,30.92
2018-07-19T12:25:08.914Z,31.37
2018-07-19T12:27:37.712Z,31.27
2018-07-19T12:30:06.793Z,30.73
2018-07-19T12:32:35.508Z,30.46
2018-07-19T12:35:04.209Z,30.51
2018-07-19T12:37:32.929Z,30.64
2018-07-19T12:40:01.692Z,30.99
2018-07-19T12:42:30.460Z,31.38
2018-07-19T12:44:59.190Z,31.38
2018-07-19T12:47:27.987Z,31.68
2018-07-19T12:49:56.702Z,31.47
2018-07-19T12:52:25.491Z,31.19
2018-07-19T12:54:54.379Z,30.81
2018-07-19T12:57:23.128Z,31.17
2018-07-19T12:59:51.816Z,31.33
2018-07-19T13:02:20.511Z,31.58
2018-07-19T13:04:49.278Z,31.29
2018-07-19T13:07:18.045Z,31.77
2018-07-19T13:09:46.769Z,31.49
2018-07-19T13:12:15.470Z,31.05
2018-07-19T13:14:44.281Z,31.34
2018-07-19T13:17:13.013Z,31.64
2018-07-19T13:19:41.710Z,31.08
2018-07-19T13:22:10.459Z,31.27
2018-07-19T13:24:39.157Z,31.32
2018-07-19T13:27:07.861Z,30.93
2018-07-19T13:29:37.556Z,30.96
2018-07-19T13:32:06.376Z,31.26
2018-07-19T13:34:35.124Z,31.15
2018-07-19T13:37:03.838Z,30.37
2018-07-19T13:39:32.594Z,30.65
2018-07-19T13:42:01.335Z,30.14
2018-07-19T13:44:30.046Z,29.85
2018-07-19T13:46:58.801Z,29.48
2018-07-19T13:49:27.497Z,29.48
2018-07-19T13:51:56.205Z,29.65
2018-07-19T13:54:35.845Z,29.60
2018-07-19T13:57:04.553Z,29.52
2018-07-19T13:59:33.285Z,29.70
2018-07-19T14:02:01.997Z,29.99
2018-07-19T14:04:30.881Z,30.09
2018-07-19T14:06:59.592Z,30.25
2018-07-19T14:09:28.305Z,30.69
2018-07-19T14:11:57.018Z,31.09
2018-07-19T14:14:25.882Z,30.91
2018-07-19T14:16:54.788Z,31.00
2018-07-19T14:19:23.507Z,30.97
2018-07-19T14:21:52.282Z,30.72
2018-07-19T14:24:21.089Z,30.58
2018-07-19T14:26:49.809Z,30.28
2018-07-19T14:29:18.528Z,30.52
2018-07-19T14:31:47.270Z,30.54
2018-07-19T14:34:16.009Z,30.73
2018-07-19T14:36:44.756Z,30.73
2018-07-19T14:39:14.111Z,30.52
2018-07-19T14:41:42.849Z,30.61
2018-07-19T14:44:11.628Z,30.51
2018-07-19T14:46:40.401Z,29.83
2018-07-19T14:49:09.162Z,29.99
2018-07-19T14:51:37.889Z,30.15
2018-07-19T14:54:06.702Z,30.25
2018-07-19T14:56:35.463Z,30.03
2018-07-19T14:59:04.190Z,30.03
2018-07-19T15:01:32.947Z,30.06
2018-07-19T15:04:01.684Z,30.18
2018-07-19T15:06:31.876Z,30.07
2018-07-19T15:09:04.042Z,30.10
2018-07-19T15:11:32.870Z,30.14
2018-07-19T15:14:01.674Z,30.11
2018-07-19T15:16:30.414Z,30.30
2018-07-19T15:18:59.150Z,30.07
2018-07-19T15:21:27.933Z,29.93
2018-07-19T15:23:56.713Z,29.79
2018-07-19T15:26:25.436Z,29.73
2018-07-19T15:28:54.177Z,29.47
2018-07-19T15:31:22.924Z,29.24
2018-07-19T15:33:51.689Z,28.80
2018-07-19T15:36:20.416Z,28.46
2018-07-19T15:38:49.158Z,28.04
2018-07-19T15:41:17.889Z,27.59
2018-07-19T15:43:46.605Z,27.25
2018-07-19T15:46:15.382Z,27.13
2018-07-19T15:48:44.105Z,27.00
2018-07-19T15:51:12.815Z,26.91
2018-07-19T15:53:41.525Z,26.89
2018-07-19T15:56:10.280Z,26.72
2018-07-19T15:58:39.015Z,26.78
2018-07-19T16:01:07.721Z,26.79
2018-07-19T16:03:36.446Z,26.76
2018-07-19T16:06:05.175Z,26.82
2018-07-19T16:08:34.152Z,26.91
2018-07-19T16:11:02.916Z,26.92
2018-07-19T16:13:31.679Z,26.98
2018-07-19T16:16:00.484Z,26.98
2018-07-19T16:18:29.340Z,26.87
2018-07-19T16:20:58.821Z,26.82
2018-07-19T16:23:27.676Z,26.72
2018-07-19T16:25:56.559Z,26.65
2018-07-19T16:28:25.685Z,26.73
2018-07-19T16:30:54.512Z,26.85
2018-07-19T16:33:23.296Z,27.01
2018-07-19T16:35:52.091Z,27.15
2018-07-19T16:38:20.917Z,27.32
2018-07-19T16:40:50.286Z,27.42
2018-07-19T16:43:19.292Z,27.51
2018-07-19T16:45:48.233Z,27.50
2018-07-19T16:48:17.060Z,27.48
2018-07-19T16:50:45.982Z,27.49
2018-07-19T16:53:14.716Z,27.57
2018-07-19T16:55:43.552Z,27.55
2018-07-19T16:58:12.301Z,27.50
2018-07-19T17:00:41.164Z,27.43
2018-07-19T17:03:10.037Z,27.41
2018-07-19T17:05:38.844Z,27.39
2018-07-19T17:08:07.742Z,27.34
2018-07-19T17:10:36.534Z,27.29
2018-07-19T17:13:05.361Z,27.26
2018-07-19T17:15:34.260Z,27.21
2018-07-19T17:18:03.042Z,27.15
2018-07-19T17:20:31.847Z,27.11
2018-07-19T17:23:00.610Z,27.05
2018-07-19T17:25:29.358Z,26.91
2018-07-19T17:27:58.112Z,26.78
2018-07-19T17:30:26.850Z,26.67
2018-07-19T17:32:55.677Z,26.58
2018-07-19T17:35:24.428Z,26.52
2018-07-19T17:37:53.163Z,26.42
2018-07-19T17:40:21.921Z,26.35
2018-07-19T17:42:50.677Z,26.25
2018-07-19T17:45:19.437Z,26.18
2018-07-19T17:47:48.241Z,26.16
2018-07-19T17:50:17.041Z,26.06
2018-07-19T17:52:45.791Z,26.03
2018-07-19T17:55:14.486Z,25.97
2018-07-19T17:57:43.272Z,25.90
2018-07-19T18:00:12.017Z,25.85
2018-07-19T18:02:40.743Z,25.81
2018-07-19T18:05:09.457Z,25.63
2018-07-19T18:07:38.200Z,25.67
2018-07-19T18:10:06.973Z,25.62
2018-07-19T18:12:35.678Z,25.56
2018-07-19T18:15:04.533Z,25.52
2018-07-19T18:17:33.303Z,25.51
2018-07-19T18:20:02.028Z,25.51
2018-07-19T18:22:30.758Z,25.47
2018-07-19T18:24:59.494Z,25.46
2018-07-19T18:27:28.275Z,25.43
2018-07-19T18:29:57.049Z,25.39
2018-07-19T18:32:25.803Z,25.41
2018-07-19T18:34:54.545Z,25.40
2018-07-19T18:37:23.291Z,25.38
2018-07-19T18:39:52.288Z,25.40
2018-07-19T18:42:21.057Z,25.43
2018-07-19T18:44:49.818Z,25.42
2018-07-19T18:47:18.520Z,25.45
2018-07-19T18:49:47.443Z,25.44
2018-07-19T18:52:16.195Z,25.46
2018-07-19T18:54:45.126Z,25.47
2018-07-19T18:57:13.878Z,25.35
2018-07-19T18:59:42.625Z,25.18
2018-07-19T19:02:11.343Z,25.00
2018-07-19T19:04:40.065Z,24.94
2018-07-19T19:07:08.821Z,24.83
2018-07-19T19:09:37.540Z,24.62
2018-07-19T19:12:06.478Z,24.49
2018-07-19T19:14:35.200Z,24.44
2018-07-19T19:17:03.926Z,24.36
2018-07-19T19:19:32.646Z,24.31
2018-07-19T19:22:01.398Z,24.30
2018-07-19T19:24:30.197Z,24.28
2018-07-19T19:26:59.160Z,24.29
2018-07-19T19:29:27.988Z,24.15
2018-07-19T19:31:56.735Z,24.18
2018-07-19T19:34:25.689Z,24.17
2018-07-19T19:36:54.425Z,24.22
2018-07-19T19:39:23.205Z,24.29
2018-07-19T19:41:51.958Z,24.34
2018-07-19T19:44:20.810Z,24.37
2018-07-19T19:46:49.591Z,24.47
2018-07-19T19:49:18.417Z,24.53
2018-07-19T19:51:47.213Z,24.56
2018-07-19T19:54:15.969Z,24.54
2018-07-19T19:56:49.208Z,24.48
2018-07-19T19:59:18.269Z,24.50
2018-07-19T20:01:47.270Z,24.49
2018-07-19T20:04:16.086Z,24.52
2018-07-19T20:06:45.033Z,24.51
2018-07-19T20:09:13.834Z,24.50
2018-07-19T20:11:42.613Z,24.51
2018-07-19T20:14:11.516Z,24.57
2018-07-19T20:16:40.269Z,24.61
2018-07-19T20:19:08.990Z,24.60
2018-07-19T20:21:39.380Z,24.58
2018-07-19T20:24:08.100Z,24.62
2018-07-19T20:26:36.849Z,24.59
2018-07-19T20:29:05.626Z,24.54
2018-07-19T20:31:34.369Z,24.44
2018-07-19T20:34:04.505Z,24.44
2018-07-19T20:36:33.285Z,24.47
2018-07-19T20:39:02.701Z,24.44
2018-07-19T20:41:32.299Z,24.38
2018-07-19T20:44:01.178Z,24.36
2018-07-19T20:46:30.228Z,24.41
2018-07-19T20:48:59.018Z,24.40
2018-07-19T20:51:27.890Z,24.42
2018-07-19T20:53:57.377Z,24.42
2018-07-19T20:56:26.086Z,24.43
2018-07-19T20:58:54.821Z,24.38
2018-07-19T21:01:23.541Z,24.25
2018-07-19T21:03:52.274Z,24.10
2018-07-19T21:06:20.984Z,24.11
2018-07-19T21:08:49.722Z,24.15
2018-07-19T21:11:18.697Z,23.97
2018-07-19T21:13:47.408Z,23.72
2018-07-19T21:16:16.256Z,23.63
2018-07-19T21:18:45.027Z,23.47
2018-07-19T21:21:13.724Z,23.40
2018-07-19T21:23:42.457Z,23.34
2018-07-19T21:26:11.166Z,23.23
2018-07-19T21:28:39.865Z,23.18
2018-07-19T21:31:08.569Z,23.04
2018-07-19T21:33:37.327Z,23.07
2018-07-19T21:36:06.273Z,23.07
2018-07-19T21:38:35.026Z,23.07
2018-07-19T21:41:03.827Z,23.06
2018-07-19T21:43:32.621Z,23.00
2018-07-19T21:46:01.338Z,22.81
2018-07-19T21:48:30.167Z,22.69
2018-07-19T21:50:58.895Z,22.60
2018-07-19T21:53:27.600Z,22.54
2018-07-19T21:55:56.478Z,22.48
2018-07-19T21:58:25.194Z,22.41
2018-07-19T22:00:58.981Z,22.41
2018-07-19T22:03:27.709Z,22.41
2018-07-19T22:05:56.448Z,22.35
2018-07-19T22:08:25.165Z,22.38
2018-07-19T22:10:53.890Z,22.38
2018-07-19T22:13:22.662Z,22.30
2018-07-19T22:15:51.425Z,22.29
2018-07-19T22:18:20.230Z,22.28
2018-07-19T22:20:48.951Z,22.30
2018-07-19T22:23:17.691Z,22.27
2018-07-19T22:25:46.482Z,22.34
2018-07-19T22:28:15.231Z,22.25
2018-07-19T22:30:44.014Z,22.26
2018-07-19T22:33:12.750Z,22.22
2018-07-19T22:35:41.498Z,22.18
2018-07-19T22:38:10.279Z,22.14
2018-07-19T22:40:39.051Z,22.16
2018-07-19T22:43:07.797Z,22.13
2018-07-19T22:45:36.585Z,22.06
2018-07-19T22:48:05.412Z,22.07
2018-07-19T22:50:34.176Z,22.01
2018-07-19T22:53:03.085Z,21.96
2018-07-19T22:55:31.847Z,21.93
2018-07-19T22:58:00.624Z,21.86
2018-07-19T23:00:29.420Z,21.88
2018-07-19T23:02:58.345Z,21.80
2018-07-19T23:05:27.077Z,21.74
2018-07-19T23:07:55.805Z,21.72
2018-07-19T23:10:24.509Z,21.66
2018-07-19T23:12:53.693Z,21.62
2018-07-19T23:15:22.442Z,21.61
2018-07-19T23:17:51.188Z,21.56
2018-07-19T23:20:19.892Z,21.57
2018-07-19T23:22:58.301Z,21.46
2018-07-19T23:25:27.030Z,21.41
2018-07-19T23:27:56.614Z,21.41
2018-07-19T23:30:33.929Z,21.47
2018-07-19T23:33:02.764Z,21.53
2018-07-19T23:35:37.153Z,21.57
2018-07-19T23:38:08.853Z,21.62
2018-07-19T23:40:40.401Z,21.60
2018-07-19T23:43:14.717Z,21.65
2018-07-19T23:46:01.445Z,21.73
2018-07-19T23:48:30.267Z,21.80
2018-07-19T23:50:58.993Z,21.96
2018-07-19T23:53:27.722Z,21.97
2018-07-19T23:55:56.486Z,21.96
2018-07-19T23:58:25.391Z,21.91
